Time;durP1;ratioP1;P1;durP2;ratioP2;P2;SDS_P1;SDS_P2;PMS_P1;PMS_P2;Temp;Humidity;BMP_temperature;BMP_pressure;BME280_temperature;BME280_humidity;BME280_pressure;Samples;Min_cycle;Max_cycle;Signal;HPM_P1;HPM_P2
2022/01/02 00:01:52;;;;;;;12.95;7.88;;;4.30;73.50;;;;;;4997524;28;20222;-79
2022/01/02 00:04:22;;;;;;;11.40;6.00;;;4.30;73.20;;;;;;5003640;28;20192;-80
2022/01/02 00:06:51;;;;;;;8.80;5.40;;;4.30;72.50;;;;;;4998446;28;20200;-79
2022/01/02 00:09:32;;;;;;;10.32;6.25;;;4.30;70.90;;;;;;4996657;28;20278;-79
2022/01/02 00:12:06;;;;;;;8.63;4.88;;;4.20;70.30;;;;;;5005899;28;20184;-77
2022/01/02 00:14:35;;;;;;;12.38;7.57;;;4.20;71.30;;;;;;5009181;28;20635;-78
2022/01/02 00:17:04;;;;;;;8.70;4.82;;;4.10;71.30;;;;;;4997824;28;20233;-79
2022/01/02 00:19:32;;;;;;;10.63;5.78;;;4.00;72.20;;;;;;4996873;28;20199;-77
2022/01/02 00:22:02;;;;;;;8.13;6.65;;;4.00;73.00;;;;;;4997153;28;20254;-78
2022/01/02 00:24:32;;;;;;;10.25;6.10;;;4.00;73.60;;;;;;5014498;28;20283;-78
2022/01/02 00:27:01;;;;;;;10.98;5.13;;;4.10;74.00;;;;;;5012978;28;20627;-78
2022/01/02 00:29:29;;;;;;;7.93;4.80;;;4.10;73.80;;;;;;4996281;28;20542;-78
2022/01/02 00:31:56;;;;;;;7.47;4.78;;;4.10;73.50;;;;;;5002774;28;20373;-79
2022/01/02 00:34:24;;;;;;;7.63;4.82;;;4.10;73.50;;;;;;5014360;28;20292;-79
2022/01/02 00:36:51;;;;;;;11.10;5.60;;;4.10;73.20;;;;;;5012837;28;20223;-78
2022/01/02 00:39:18;;;;;;;9.70;4.57;;;4.10;73.00;;;;;;5014254;28;20195;-79
2022/01/02 00:41:49;;;;;;;7.88;4.50;;;4.10;72.60;;;;;;5013324;28;20188;-78
2022/01/02 00:44:28;;;;;;;5.43;3.42;;;4.10;73.00;;;;;;5013735;28;20642;-78
2022/01/02 00:47:05;;;;;;;4.85;3.05;;;4.00;72.80;;;;;;5011025;28;20601;-79
2022/01/02 00:49:38;;;;;;;4.30;3.58;;;4.10;73.30;;;;;;5015727;28;20187;-79
2022/01/02 00:52:13;;;;;;;6.40;3.80;;;4.00;73.30;;;;;;5014997;28;20571;-78
2022/01/02 00:54:45;;;;;;;7.65;5.07;;;4.00;73.70;;;;;;5015672;28;20230;-78
2022/01/02 00:57:17;;;;;;;7.05;5.40;;;4.00;74.20;;;;;;5014846;28;20192;-78
2022/01/02 00:59:48;;;;;;;7.65;5.20;;;3.90;74.20;;;;;;5015689;28;20219;-78
2022/01/02 01:02:19;;;;;;;9.50;4.88;;;3.90;74.90;;;;;;5014669;28;20208;-79
2022/01/02 01:04:49;;;;;;;5.15;3.58;;;3.80;75.30;;;;;;5015439;28;20189;-78
2022/01/02 01:07:20;;;;;;;6.30;3.42;;;3.90;75.50;;;;;;5014073;28;20658;-78
2022/01/02 01:09:49;;;;;;;4.60;2.67;;;3.90;75.40;;;;;;5015018;28;20238;-79
2022/01/02 01:12:18;;;;;;;5.15;3.35;;;3.90;75.30;;;;;;5013175;28;20188;-78
2022/01/02 01:14:47;;;;;;;6.35;3.58;;;4.00;75.30;;;;;;5014053;28;20196;-78
2022/01/02 01:17:16;;;;;;;7.20;3.65;;;4.00;74.80;;;;;;5013749;28;20247;-79
2022/01/02 01:19:43;;;;;;;9.68;4.50;;;3.90;72.90;;;;;;5014808;28;20192;-78
2022/01/02 01:22:10;;;;;;;9.35;3.85;;;3.90;73.20;;;;;;5014333;28;20235;-78
2022/01/02 01:24:38;;;;;;;5.13;3.33;;;3.90;73.20;;;;;;5014806;28;20198;-78
2022/01/02 01:27:08;;;;;;;3.72;3.03;;;3.80;72.40;;;;;;5013979;28;20185;-79
2022/01/02 01:29:39;;;;;;;5.28;3.17;;;3.90;72.00;;;;;;5014509;28;20267;-78
2022/01/02 01:32:09;;;;;;;5.93;3.05;;;3.80;71.90;;;;;;5014321;28;20632;-78
2022/01/02 01:34:37;;;;;;;6.80;3.15;;;3.80;72.40;;;;;;5014374;28;20282;-77
2022/01/02 01:37:06;;;;;;;4.38;3.10;;;3.70;72.40;;;;;;5014094;28;20645;-78
2022/01/02 01:39:34;;;;;;;6.03;3.58;;;3.50;72.70;;;;;;5014575;28;20212;-78
2022/01/02 01:42:07;;;;;;;4.82;3.13;;;3.50;72.50;;;;;;5013972;28;20559;-78
2022/01/02 01:47:24;;;;;;;4.88;3.35;;;3.30;72.20;;;;;;4980310;28;20688;-78
2022/01/02 01:49:51;;;;;;;5.78;3.10;;;3.30;72.20;;;;;;5014083;28;20184;-78
2022/01/02 01:52:18;;;;;;;10.20;3.65;;;3.20;72.30;;;;;;5014377;28;20552;-78
2022/01/02 01:54:45;;;;;;;8.30;4.88;;;3.20;72.50;;;;;;5013620;28;20563;-78
2022/01/02 01:57:12;;;;;;;7.32;3.80;;;3.10;73.30;;;;;;5013961;28;20273;-78
2022/01/02 01:59:39;;;;;;;8.82;4.63;;;3.20;74.10;;;;;;5012666;28;20246;-78
2022/01/02 02:02:07;;;;;;;7.80;4.47;;;3.10;74.10;;;;;;5014183;28;20188;-78
2022/01/02 02:04:38;;;;;;;4.82;3.65;;;3.10;74.50;;;;;;5013604;28;20211;-79
2022/01/02 02:07:06;;;;;;;5.32;3.63;;;3.10;75.30;;;;;;5013680;28;20199;-78
2022/01/02 02:09:46;;;;;;;9.93;4.75;;;3.10;75.50;;;;;;5011262;28;20192;-78
2022/01/02 02:12:14;;;;;;;8.68;3.95;;;3.10;75.60;;;;;;5013793;28;20238;-78
2022/01/02 02:14:41;;;;;;;7.25;3.92;;;3.10;76.40;;;;;;5013205;28;20176;-78
2022/01/02 02:17:08;;;;;;;10.30;3.78;;;3.00;76.70;;;;;;5013625;28;20227;-78
2022/01/02 02:19:36;;;;;;;4.80;2.97;;;3.00;77.10;;;;;;5012330;28;20227;-78
2022/01/02 02:22:06;;;;;;;5.55;3.30;;;2.90;78.60;;;;;;5013404;28;20227;-79
2022/01/02 02:24:33;;;;;;;6.00;3.72;;;2.90;79.00;;;;;;5013287;28;20609;-79
2022/01/02 02:27:00;;;;;;;5.85;2.67;;;3.00;79.50;;;;;;5013754;28;20599;-78
2022/01/02 02:29:27;;;;;;;4.70;2.72;;;3.00;79.70;;;;;;5012007;28;20643;-77
2022/01/02 02:31:56;;;;;;;4.53;2.88;;;3.00;79.40;;;;;;5013459;28;20260;-78
2022/01/02 02:34:23;;;;;;;4.63;2.85;;;3.10;79.00;;;;;;5013018;28;20220;-78
2022/01/02 02:36:50;;;;;;;3.17;2.08;;;3.00;79.90;;;;;;5013783;28;20196;-78
2022/01/02 02:39:18;;;;;;;3.90;1.95;;;3.10;79.30;;;;;;5012890;28;20180;-78
2022/01/02 02:41:45;;;;;;;3.05;2.10;;;3.10;79.80;;;;;;5013733;28;20599;-79
2022/01/02 02:44:21;;;;;;;3.63;2.22;;;3.10;79.90;;;;;;5012288;28;20281;-78
2022/01/02 02:49:38;;;;;;;9.63;4.72;;;3.30;79.40;;;;;;5012849;28;20269;-79
2022/01/02 02:52:13;;;;;;;9.73;4.57;;;3.40;78.90;;;;;;5013536;28;20192;-78
2022/01/02 02:54:42;;;;;;;8.77;4.30;;;3.50;78.40;;;;;;5012579;28;20215;-78
2022/01/02 02:57:13;;;;;;;5.20;3.20;;;3.50;77.70;;;;;;5013594;28;20666;-78
2022/01/02 02:59:40;;;;;;;5.03;3.22;;;3.60;76.90;;;;;;5011965;28;20542;-76
2022/01/02 03:02:07;;;;;;;8.13;2.97;;;3.60;76.60;;;;;;5012895;28;20250;-76
2022/01/02 03:04:34;;;;;;;5.88;2.92;;;3.60;76.50;;;;;;5012178;28;20243;-76
2022/01/02 03:07:01;;;;;;;6.75;3.38;;;3.60;76.40;;;;;;5012672;28;20196;-77
2022/01/02 03:09:38;;;;;;;7.60;3.60;;;3.60;76.50;;;;;;5011718;28;20243;-76
2022/01/02 03:12:08;;;;;;;5.55;2.88;;;3.60;75.80;;;;;;5012718;28;20192;-76
2022/01/02 03:14:35;;;;;;;5.65;3.97;;;3.60;75.70;;;;;;5012068;28;20647;-78
2022/01/02 03:17:03;;;;;;;9.13;5.35;;;3.50;75.90;;;;;;5012308;28;20679;-78
2022/01/02 03:19:31;;;;;;;9.65;3.80;;;3.50;76.80;;;;;;5011664;28;20188;-78
2022/01/02 03:21:58;;;;;;;7.25;3.20;;;3.50;76.80;;;;;;5013198;28;20196;-78
2022/01/02 03:24:25;;;;;;;7.00;4.30;;;3.60;76.70;;;;;;5012223;28;20220;-79
2022/01/02 03:26:53;;;;;;;9.43;4.00;;;3.60;76.10;;;;;;5013180;28;20254;-78
2022/01/02 03:29:22;;;;;;;8.90;4.05;;;3.60;75.70;;;;;;5012127;28;20192;-79
2022/01/02 03:31:49;;;;;;;6.60;3.85;;;3.60;75.60;;;;;;5012716;28;20242;-79
2022/01/02 03:34:16;;;;;;;6.75;3.72;;;3.60;75.50;;;;;;5011055;28;20220;-78
2022/01/02 03:36:43;;;;;;;7.75;4.22;;;3.60;75.00;;;;;;5012540;28;20196;-79
2022/01/02 03:39:10;;;;;;;6.85;3.42;;;3.60;74.10;;;;;;5011588;28;20663;-79
2022/01/02 03:41:37;;;;;;;7.25;3.10;;;3.50;73.60;;;;;;5012895;28;20216;-78
2022/01/02 03:44:04;;;;;;;6.32;3.10;;;3.40;73.20;;;;;;5011601;28;20270;-78
2022/01/02 03:46:33;;;;;;;7.35;3.80;;;3.40;72.90;;;;;;5012597;28;20228;-78
2022/01/02 03:49:00;;;;;;;7.00;3.90;;;3.30;72.10;;;;;;5011840;28;20584;-78
2022/01/02 03:51:27;;;;;;;6.72;3.80;;;3.20;73.30;;;;;;5012882;28;20192;-78
2022/01/02 03:53:54;;;;;;;6.28;3.53;;;3.20;73.30;;;;;;5011884;28;20639;-78
2022/01/02 03:56:21;;;;;;;4.68;2.50;;;3.10;72.80;;;;;;5012585;28;20286;-78
2022/01/02 03:58:48;;;;;;;5.10;3.13;;;3.10;73.00;;;;;;5011540;28;20220;-78
2022/01/02 04:01:15;;;;;;;5.95;3.30;;;3.10;73.40;;;;;;5012589;28;20226;-78
2022/01/02 04:03:43;;;;;;;5.75;2.58;;;3.00;73.50;;;;;;5011694;28;20220;-78
2022/01/02 04:06:10;;;;;;;6.38;2.92;;;3.00;73.50;;;;;;5012448;28;20251;-78
2022/01/02 04:08:37;;;;;;;4.00;3.25;;;3.00;72.80;;;;;;5011652;28;20196;-78
2022/01/02 04:11:04;;;;;;;4.00;3.00;;;3.00;73.10;;;;;;5012791;28;20200;-78
2022/01/02 04:13:31;;;;;;;6.45;3.08;;;2.90;73.20;;;;;;5012963;28;20196;-78
2022/01/02 04:15:58;;;;;;;6.18;3.72;;;2.90;73.50;;;;;;5011861;28;20188;-78
2022/01/02 04:18:25;;;;;;;4.30;2.60;;;2.90;72.70;;;;;;5011892;28;20254;-78
2022/01/02 04:20:53;;;;;;;4.68;2.80;;;2.70;71.80;;;;;;5012735;28;20231;-78
2022/01/02 04:23:20;;;;;;;4.80;2.08;;;2.60;72.10;;;;;;5011890;28;20343;-78
2022/01/02 04:25:47;;;;;;;5.47;2.35;;;2.60;72.80;;;;;;5012680;28;20228;-78
2022/01/02 04:28:14;;;;;;;4.97;3.10;;;2.60;73.40;;;;;;5011664;28;20235;-78
2022/01/02 04:30:41;;;;;;;3.85;2.47;;;2.60;73.90;;;;;;5012717;28;20223;-78
2022/01/02 04:33:08;;;;;;;4.10;2.30;;;2.60;74.10;;;;;;5011543;28;20270;-78
2022/01/02 04:35:35;;;;;;;4.20;2.75;;;2.60;73.50;;;;;;5012541;28;20196;-78
2022/01/02 04:38:03;;;;;;;5.25;2.90;;;2.60;73.30;;;;;;5011651;28;20559;-78
2022/01/02 04:40:30;;;;;;;4.18;2.55;;;2.60;73.90;;;;;;5012510;28;20251;-78
2022/01/02 04:42:57;;;;;;;6.28;3.17;;;2.60;74.10;;;;;;5011566;28;20216;-78
2022/01/02 04:45:24;;;;;;;5.15;3.22;;;2.60;74.10;;;;;;5012391;28;20228;-78
2022/01/02 04:47:51;;;;;;;4.75;2.95;;;2.60;74.00;;;;;;5011157;28;20223;-78
2022/01/02 04:50:18;;;;;;;4.20;2.30;;;2.60;73.40;;;;;;5012909;28;20232;-78
2022/01/02 04:52:45;;;;;;;5.45;2.00;;;2.60;73.20;;;;;;5015264;28;20192;-78
2022/01/02 04:55:14;;;;;;;5.93;4.72;;;2.50;72.00;;;;;;5015835;28;20623;-78
2022/01/02 04:57:41;;;;;;;4.78;2.83;;;2.50;72.40;;;;;;5014957;28;20330;-78
2022/01/02 05:00:09;;;;;;;5.40;3.55;;;2.50;73.60;;;;;;5015852;28;20279;-79
2022/01/02 05:02:36;;;;;;;5.10;3.38;;;2.50;73.80;;;;;;5015079;28;20188;-78
2022/01/02 05:05:03;;;;;;;4.60;3.88;;;2.50;74.90;;;;;;5015478;28;20278;-78
2022/01/02 05:07:30;;;;;;;5.18;3.83;;;2.50;75.10;;;;;;5015151;28;20242;-78
2022/01/02 05:09:57;;;;;;;5.90;3.90;;;2.50;74.70;;;;;;5015673;28;20713;-77
2022/01/02 05:12:26;;;;;;;8.18;4.05;;;2.50;74.60;;;;;;5014283;28;20220;-78
2022/01/02 05:14:53;;;;;;;5.38;3.45;;;2.50;74.60;;;;;;5014849;28;20181;-78
2022/01/02 05:17:20;;;;;;;8.35;3.25;;;2.50;74.70;;;;;;5015258;28;20683;-78
2022/01/02 05:19:47;;;;;;;7.45;4.03;;;2.50;74.20;;;;;;5014304;28;20256;-78
2022/01/02 05:22:14;;;;;;;10.68;4.38;;;2.40;73.70;;;;;;5015405;28;20232;-78
2022/01/02 05:24:41;;;;;;;8.95;3.85;;;2.30;74.30;;;;;;5014560;28;20243;-78
2022/01/02 05:27:08;;;;;;;5.80;3.60;;;2.30;74.80;;;;;;5015252;28;20211;-78
2022/01/02 05:29:37;;;;;;;4.90;3.38;;;2.20;74.60;;;;;;5014642;28;20678;-78
2022/01/02 05:32:04;;;;;;;7.18;3.50;;;2.20;75.40;;;;;;5015148;28;20235;-77
2022/01/02 05:34:31;;;;;;;5.85;4.60;;;2.20;75.30;;;;;;5014418;28;20238;-78
2022/01/02 05:36:58;;;;;;;6.15;3.40;;;2.20;75.50;;;;;;5014846;28;20192;-78
2022/01/02 05:39:25;;;;;;;7.90;3.75;;;2.30;75.30;;;;;;5014474;28;20196;-74
2022/01/02 05:41:52;;;;;;;6.90;3.90;;;2.20;75.00;;;;;;5015099;28;20275;-78
2022/01/02 05:44:20;;;;;;;4.78;3.60;;;2.20;74.90;;;;;;5014786;28;20706;-78
2022/01/02 05:46:49;;;;;;;9.15;5.00;;;2.20;74.80;;;;;;5014196;28;21289;-78
2022/01/02 05:49:16;;;;;;;4.65;3.70;;;2.20;75.20;;;;;;5014921;28;20227;-78
2022/01/02 05:51:48;;;;;;;7.50;4.82;;;2.20;76.10;;;;;;5011558;28;20220;-78
2022/01/02 05:54:15;;;;;;;6.60;2.90;;;2.10;76.70;;;;;;5014291;28;20192;-78
2022/01/02 05:56:42;;;;;;;4.65;2.55;;;2.20;77.60;;;;;;5014386;28;20188;-78
2022/01/02 05:59:09;;;;;;;3.97;2.70;;;2.20;78.10;;;;;;5013926;28;20261;-78
2022/01/02 06:01:36;;;;;;;3.40;2.40;;;1.90;79.10;;;;;;5014207;28;20231;-78
2022/01/02 06:04:04;;;;;;;3.83;2.55;;;1.90;80.00;;;;;;5013756;28;20254;-78
2022/01/02 06:06:31;;;;;;;4.10;3.20;;;1.90;79.90;;;;;;5014613;28;20200;-78
2022/01/02 06:08:58;;;;;;;5.47;3.10;;;2.00;80.00;;;;;;5013774;28;20193;-78
2022/01/02 06:11:25;;;;;;;4.15;3.17;;;2.10;79.60;;;;;;5014646;28;20598;-78
2022/01/02 06:13:52;;;;;;;3.42;2.10;;;2.10;79.50;;;;;;5013792;28;20220;-78
2022/01/02 06:16:19;;;;;;;4.97;2.30;;;2.20;79.20;;;;;;5014382;28;20657;-78
2022/01/02 06:18:46;;;;;;;4.85;2.15;;;2.20;79.20;;;;;;5012845;28;20216;-79
2022/01/02 06:21:15;;;;;;;3.10;1.50;;;2.30;79.20;;;;;;5014198;28;20273;-78
2022/01/02 06:23:42;;;;;;;5.93;2.05;;;2.30;79.00;;;;;;5012968;28;20274;-78
2022/01/02 06:26:08;;;;;;;3.72;2.65;;;2.40;78.30;;;;;;5013408;28;20188;-78
2022/01/02 06:28:35;;;;;;;3.97;2.50;;;2.30;77.90;;;;;;5014264;28;20303;-77
2022/01/02 06:31:02;;;;;;;4.35;1.90;;;2.40;77.70;;;;;;5013181;28;20180;-78
2022/01/02 06:33:29;;;;;;;5.00;2.65;;;2.40;77.10;;;;;;5014083;28;20635;-78
2022/01/02 06:35:56;;;;;;;3.25;1.92;;;2.40;77.00;;;;;;5013326;28;20219;-78
2022/01/02 06:38:25;;;;;;;6.18;3.65;;;2.30;76.20;;;;;;5013904;28;20192;-78
2022/01/02 06:40:52;;;;;;;6.72;3.75;;;2.30;75.40;;;;;;5012585;28;20188;-78
2022/01/02 06:43:19;;;;;;;6.53;3.35;;;2.20;75.10;;;;;;5013933;28;20263;-78
2022/01/02 06:45:46;;;;;;;4.85;3.22;;;2.30;75.20;;;;;;5013062;28;20181;-78
2022/01/02 06:48:13;;;;;;;5.03;2.97;;;2.20;75.20;;;;;;5013835;28;20278;-78
2022/01/02 06:50:41;;;;;;;3.60;2.35;;;2.20;74.90;;;;;;5012990;28;20216;-78
2022/01/02 06:53:08;;;;;;;4.70;2.20;;;2.20;74.80;;;;;;5013408;28;20286;-78
2022/01/02 06:55:37;;;;;;;6.70;2.30;;;2.20;75.00;;;;;;5011928;28;20938;-78
2022/01/02 06:58:05;;;;;;;3.17;2.08;;;2.10;75.20;;;;;;5013350;28;20639;-78
2022/01/02 07:00:32;;;;;;;4.60;2.80;;;2.10;76.00;;;;;;5013092;28;20184;-78
2022/01/02 07:02:59;;;;;;;5.13;3.10;;;2.00;75.70;;;;;;5013595;28;20219;-78
2022/01/02 07:05:26;;;;;;;6.25;3.13;;;1.90;75.20;;;;;;5012662;28;20646;-78
2022/01/02 07:07:54;;;;;;;4.70;3.00;;;1.90;75.30;;;;;;5013401;28;20196;-78
2022/01/02 07:10:21;;;;;;;6.38;3.40;;;1.90;75.70;;;;;;5012519;28;20192;-79
2022/01/02 07:12:49;;;;;;;9.45;4.10;;;1.90;75.90;;;;;;5012785;28;20227;-76
2022/01/02 07:15:16;;;;;;;7.50;4.00;;;2.00;76.50;;;;;;5012725;28;20643;-79
2022/01/02 07:17:43;;;;;;;15.20;8.25;;;2.00;76.80;;;;;;5012991;28;20273;-78
2022/01/02 07:20:12;;;;;;;27.10;16.55;;;2.00;77.20;;;;;;5012646;28;20196;-78
2022/01/02 07:22:40;;;;;;;26.20;17.02;;;2.00;77.50;;;;;;5013222;28;20270;-78
2022/01/02 07:25:08;;;;;;;19.80;14.02;;;2.00;78.00;;;;;;5012448;28;20564;-78
2022/01/02 07:27:35;;;;;;;16.00;9.80;;;2.00;78.60;;;;;;5013307;28;20196;-78
2022/01/02 07:30:05;;;;;;;26.65;16.20;;;2.30;79.00;;;;;;5012320;28;20188;-77
2022/01/02 07:32:32;;;;;;;27.08;14.05;;;2.60;80.00;;;;;;5012895;28;20223;-78
2022/01/02 07:34:59;;;;;;;27.48;16.02;;;3.00;79.70;;;;;;5012031;28;20272;-79
2022/01/02 07:37:26;;;;;;;32.10;17.48;;;3.50;78.10;;;;;;5013162;28;20196;-79
2022/01/02 07:39:53;;;;;;;13.40;8.77;;;3.90;76.60;;;;;;5012143;28;20234;-79
2022/01/02 07:42:20;;;;;;;40.83;23.33;;;4.30;75.40;;;;;;5013137;28;20235;-79
2022/01/02 07:44:47;;;;;;;25.27;14.57;;;4.60;74.30;;;;;;5012165;28;20216;-79
2022/01/02 07:47:15;;;;;;;26.13;13.90;;;5.10;75.20;;;;;;5012804;28;20192;-79
2022/01/02 07:49:42;;;;;;;15.70;9.15;;;5.50;73.50;;;;;;5012239;28;20196;-80
2022/01/02 07:52:09;;;;;;;11.98;6.70;;;6.00;71.70;;;;;;5013012;28;20196;-80
2022/01/02 07:54:37;;;;;;;10.27;6.72;;;6.30;67.60;;;;;;5012086;28;20215;-80
2022/01/02 07:57:05;;;;;;;5.07;3.65;;;6.30;64.90;;;;;;5012930;28;20627;-79
2022/01/02 07:59:32;;;;;;;4.93;3.55;;;6.00;63.90;;;;;;5012269;28;20274;-80
2022/01/02 08:01:59;;;;;;;4.32;3.92;;;5.70;64.50;;;;;;5012696;28;20192;-79
2022/01/02 08:04:28;;;;;;;7.43;5.28;;;5.60;64.50;;;;;;5012035;28;20269;-80
2022/01/02 08:06:55;;;;;;;7.65;5.00;;;5.50;64.90;;;;;;5012962;28;20196;-80
2022/01/02 08:09:21;;;;;;;8.57;6.00;;;5.50;64.80;;;;;;5012121;28;20180;-80
2022/01/02 08:11:48;;;;;;;8.15;5.57;;;5.30;64.80;;;;;;5013087;28;20271;-80
2022/01/02 08:14:16;;;;;;;9.25;6.72;;;5.10;66.10;;;;;;5012075;28;20224;-79
2022/01/02 08:16:43;;;;;;;9.48;7.35;;;5.20;66.70;;;;;;5012481;28;20279;-80
2022/01/02 08:19:10;;;;;;;9.13;6.00;;;5.20;67.60;;;;;;5011313;28;20216;-80
2022/01/02 08:21:39;;;;;;;10.27;6.68;;;5.30;68.30;;;;;;5012911;28;20270;-80
2022/01/02 08:24:07;;;;;;;13.07;7.55;;;5.40;68.00;;;;;;5012223;28;20624;-79
2022/01/02 08:26:34;;;;;;;9.88;6.30;;;5.50;68.40;;;;;;5016681;28;20257;-80
2022/01/02 08:29:01;;;;;;;9.90;6.50;;;5.60;68.20;;;;;;5015705;28;20258;-80
2022/01/02 08:31:28;;;;;;;11.52;6.80;;;5.70;67.50;;;;;;5016321;28;20192;-80
2022/01/02 08:33:55;;;;;;;8.38;6.18;;;5.70;66.80;;;;;;5015572;28;20274;-80
2022/01/02 08:36:22;;;;;;;9.35;5.32;;;5.70;66.70;;;;;;5016254;28;20227;-80
2022/01/02 08:38:51;;;;;;;7.32;5.38;;;5.60;67.00;;;;;;5015683;28;20188;-80
2022/01/02 08:41:18;;;;;;;8.95;6.25;;;5.50;66.40;;;;;;5016321;28;20242;-80
2022/01/02 08:43:46;;;;;;;6.30;5.00;;;5.60;66.60;;;;;;5015057;28;20199;-80
2022/01/02 08:46:13;;;;;;;8.02;5.50;;;5.60;66.70;;;;;;5016097;28;20625;-79
2022/01/02 08:48:40;;;;;;;13.88;9.70;;;5.70;67.10;;;;;;5015513;28;20247;-75
2022/01/02 08:51:11;;;;;;;11.95;10.68;;;5.90;66.40;;;;;;4996103;28;20189;-80
2022/01/02 08:53:39;;;;;;;36.05;21.92;;;6.10;66.10;;;;;;4996566;28;20205;-80
2022/01/02 08:56:07;;;;;;;47.15;30.60;;;6.20;66.40;;;;;;5014674;28;20212;-80
2022/01/02 08:58:40;;;;;;;31.75;21.10;;;6.20;66.90;;;;;;5015544;28;20729;-80
2022/01/02 09:01:07;;;;;;;22.60;15.18;;;6.30;67.40;;;;;;5014631;28;20319;-80
2022/01/02 09:03:34;;;;;;;22.08;15.27;;;6.60;67.90;;;;;;5015851;28;20232;-80
2022/01/02 09:06:01;;;;;;;29.58;16.00;;;6.70;67.20;;;;;;5015229;28;20633;-80
2022/01/02 09:08:28;;;;;;;25.65;17.23;;;6.80;66.40;;;;;;5015891;28;20196;-80
2022/01/02 09:10:55;;;;;;;29.55;16.08;;;6.90;66.10;;;;;;5013779;28;20188;-81
2022/01/02 09:13:26;;;;;;;38.75;25.55;;;7.00;65.70;;;;;;5015720;28;20228;-81
2022/01/02 09:15:53;;;;;;;23.88;15.70;;;7.20;65.60;;;;;;5015001;28;20520;-80
2022/01/02 09:18:20;;;;;;;27.60;18.20;;;7.30;65.20;;;;;;5015636;28;20232;-81
2022/01/02 09:20:47;;;;;;;26.60;16.70;;;7.50;65.10;;;;;;5014647;28;20224;-81
2022/01/02 09:23:14;;;;;;;21.52;14.70;;;7.70;63.50;;;;;;5013664;28;20211;-77
2022/01/02 09:25:41;;;;;;;23.15;13.50;;;7.60;63.50;;;;;;5014998;28;20263;-81
2022/01/02 09:28:08;;;;;;;20.50;13.15;;;7.60;63.30;;;;;;5015266;28;20228;-81
2022/01/02 09:30:37;;;;;;;20.05;13.82;;;7.50;63.00;;;;;;5014474;28;20196;-80
2022/01/02 09:33:08;;;;;;;16.15;7.88;;;7.50;63.90;;;;;;5003916;28;20772;-80
2022/01/02 09:35:36;;;;;;;10.40;7.80;;;7.80;65.20;;;;;;4998156;28;20224;-81
2022/01/02 09:38:03;;;;;;;10.05;7.22;;;8.30;65.20;;;;;;4985044;28;20229;-80
2022/01/02 09:40:32;;;;;;;11.77;7.50;;;8.80;64.70;;;;;;4975219;28;20204;-81
2022/01/02 09:43:00;;;;;;;19.05;12.18;;;9.20;62.80;;;;;;4975339;28;20300;-82
2022/01/02 09:45:28;;;;;;;27.98;14.63;;;9.70;62.40;;;;;;4974807;28;20229;-81
2022/01/02 09:47:56;;;;;;;15.57;10.50;;;10.30;59.50;;;;;;4987976;28;20189;-82
2022/01/02 09:50:24;;;;;;;16.38;13.73;;;10.80;58.00;;;;;;4992971;28;20682;-82
2022/01/02 09:52:52;;;;;;;22.73;15.15;;;11.30;58.30;;;;;;4991995;28;20659;-82
2022/01/02 09:55:19;;;;;;;17.23;11.98;;;12.00;57.30;;;;;;4989364;28;20594;-82
2022/01/02 09:57:49;;;;;;;17.17;10.07;;;12.70;54.30;;;;;;4988386;28;20185;-83
2022/01/02 10:00:19;;;;;;;18.27;11.45;;;13.50;51.20;;;;;;4978594;28;20289;-83
2022/01/02 10:03:07;;;;;;;19.50;9.35;;;14.30;53.30;;;;;;4991538;28;20240;-82
2022/01/02 10:05:51;;;;;;;18.38;10.73;;;15.30;50.30;;;;;;4987060;28;20221;-79
2022/01/02 10:08:30;;;;;;;22.50;12.93;;;16.00;46.50;;;;;;4989879;28;20220;-83
2022/01/02 10:11:04;;;;;;;21.47;10.70;;;16.40;47.00;;;;;;4976603;28;20524;-83
2022/01/02 10:13:44;;;;;;;12.30;8.33;;;16.90;47.70;;;;;;4990242;28;20440;-83
2022/01/02 10:16:22;;;;;;;12.40;8.60;;;17.40;47.80;;;;;;4976511;28;20515;-81
2022/01/02 10:18:54;;;;;;;11.60;8.00;;;17.70;45.80;;;;;;4982680;28;20481;-77
2022/01/02 10:21:29;;;;;;;12.03;9.07;;;17.90;45.70;;;;;;4991136;28;20436;-82
2022/01/02 10:24:21;;;;;;;10.47;8.07;;;18.10;45.60;;;;;;4989915;28;20502;-82
2022/01/02 10:27:10;;;;;;;18.37;10.33;;;18.40;45.30;;;;;;4988333;28;20485;-81
2022/01/02 10:29:51;;;;;;;11.03;7.70;;;18.40;44.70;;;;;;4988058;28;20447;-81
2022/01/02 10:32:41;;;;;;;9.57;6.90;;;18.50;46.00;;;;;;4982271;28;20458;-80
2022/01/02 10:35:16;;;;;;;8.33;6.87;;;18.80;44.30;;;;;;4985392;28;20440;-79
2022/01/02 10:37:45;;;;;;;11.37;7.30;;;18.60;44.50;;;;;;4979508;28;20443;-82
2022/01/02 10:40:26;;;;;;;10.47;7.43;;;18.40;44.00;;;;;;4988955;28;20532;-81
2022/01/02 10:42:56;;;;;;;10.97;7.57;;;18.20;44.30;;;;;;4989405;28;20456;-81
2022/01/02 10:45:41;;;;;;;10.80;8.20;;;17.90;44.10;;;;;;4977371;28;20477;-81
2022/01/02 10:48:13;;;;;;;13.97;10.20;;;17.60;45.50;;;;;;4985442;28;20436;-82
2022/01/02 10:51:00;;;;;;;10.83;6.57;;;17.70;45.70;;;;;;4977396;28;20433;-81
2022/01/02 10:53:28;;;;;;;10.33;7.00;;;17.50;45.60;;;;;;4976590;28;20436;-81
2022/01/02 10:55:56;;;;;;;9.30;6.30;;;17.50;46.90;;;;;;4990878;28;20440;-75
2022/01/02 10:58:25;;;;;;;10.77;7.37;;;17.60;47.60;;;;;;4988146;28;20447;-81
2022/01/02 11:00:57;;;;;;;8.47;6.03;;;17.50;46.50;;;;;;4974434;28;21489;-78
2022/01/02 11:03:26;;;;;;;8.80;4.93;;;17.40;46.00;;;;;;4980715;28;20452;-81
2022/01/02 11:06:03;;;;;;;6.67;4.47;;;17.50;45.00;;;;;;4989109;28;20851;-81
2022/01/02 11:08:34;;;;;;;9.07;5.60;;;17.60;44.80;;;;;;4988633;28;20937;-75
2022/01/02 11:11:04;;;;;;;14.70;9.50;;;17.80;44.20;;;;;;4990478;28;20448;-81
2022/01/02 11:13:40;;;;;;;7.17;5.00;;;18.00;44.30;;;;;;4990298;28;20431;-80
2022/01/02 11:16:10;;;;;;;10.83;5.57;;;18.30;42.70;;;;;;4982762;28;20978;-79
2022/01/02 11:18:37;;;;;;;7.03;5.00;;;18.80;43.50;;;;;;4981891;28;20469;-81
2022/01/02 11:21:12;;;;;;;12.20;6.50;;;19.10;41.90;;;;;;4979814;28;20506;-80
2022/01/02 11:23:53;;;;;;;8.37;5.80;;;19.50;43.40;;;;;;4990372;28;20455;-81
2022/01/02 11:26:30;;;;;;;6.10;4.90;;;19.80;42.60;;;;;;4975748;28;20492;-81
2022/01/02 11:28:58;;;;;;;5.13;4.03;;;20.10;43.60;;;;;;4989912;28;20455;-82
2022/01/02 11:31:32;;;;;;;8.13;3.97;;;20.50;44.10;;;;;;4990346;28;20520;-81
2022/01/02 11:34:00;;;;;;;4.87;3.70;;;21.00;44.90;;;;;;4987521;28;20444;-80
2022/01/02 11:36:31;;;;;;;5.77;3.90;;;21.20;43.40;;;;;;4977660;28;20953;-82
2022/01/02 11:39:05;;;;;;;5.57;3.70;;;21.40;42.50;;;;;;4985101;28;20782;-81
2022/01/02 11:41:37;;;;;;;7.20;3.30;;;20.90;41.50;;;;;;4976810;28;20531;-79
2022/01/02 11:44:10;;;;;;;2.57;1.57;;;20.40;39.60;;;;;;4986941;28;20440;-80
2022/01/02 11:46:46;;;;;;;3.63;1.30;;;19.90;36.80;;;;;;4976253;28;20491;-81
2022/01/02 11:49:22;;;;;;;2.20;0.80;;;19.60;34.00;;;;;;4987102;28;20958;-80
2022/01/02 11:52:09;;;;;;;1.60;0.70;;;19.50;30.70;;;;;;4990069;28;20568;-81
2022/01/02 11:54:46;;;;;;;1.60;0.60;;;19.70;29.30;;;;;;4989674;28;20431;-81
2022/01/02 11:58:00;;;;;;;2.80;0.70;;;20.10;28.20;;;;;;4990486;28;20440;-81
2022/01/02 12:00:39;;;;;;;1.70;0.60;;;20.20;28.50;;;;;;4975816;28;20484;-73
2022/01/02 12:03:44;;;;;;;2.10;0.57;;;20.00;27.30;;;;;;4981595;28;20436;-80
2022/01/02 12:06:24;;;;;;;1.60;0.60;;;19.90;27.70;;;;;;4991671;28;20533;-79
2022/01/02 12:08:56;;;;;;;1.87;0.83;;;19.90;27.60;;;;;;4979791;28;20523;-80
2022/01/02 12:11:49;;;;;;;2.53;0.80;;;19.90;27.70;;;;;;4991006;28;20447;-82
2022/01/02 12:14:24;;;;;;;1.70;0.70;;;20.10;26.70;;;;;;4994017;28;20519;-81
2022/01/02 12:17:08;;;;;;;1.80;0.80;;;20.60;26.40;;;;;;4990020;28;20491;-81
2022/01/02 12:20:01;;;;;;;1.60;0.80;;;20.70;25.70;;;;;;4976905;28;20603;-81
2022/01/02 12:22:51;;;;;;;1.70;0.70;;;20.40;26.20;;;;;;4985577;28;20454;-81
2022/01/02 12:25:24;;;;;;;1.63;0.60;;;20.10;25.60;;;;;;4989133;28;20502;-81
2022/01/02 12:27:58;;;;;;;1.60;0.80;;;19.90;25.90;;;;;;4990032;28;20433;-79
2022/01/02 12:30:26;;;;;;;1.70;0.70;;;19.90;26.40;;;;;;4993462;28;20439;-82
2022/01/02 12:32:53;;;;;;;2.00;0.90;;;20.00;25.80;;;;;;4982757;28;20455;-81
2022/01/02 12:35:21;;;;;;;1.57;0.70;;;20.30;25.90;;;;;;4994173;28;20447;-78
2022/01/02 12:38:07;;;;;;;2.10;1.00;;;20.60;25.90;;;;;;4983256;28;20954;-82
2022/01/02 12:40:40;;;;;;;3.40;0.70;;;20.60;25.60;;;;;;4993552;28;20440;-77
2022/01/02 12:43:12;;;;;;;1.80;0.87;;;20.50;25.60;;;;;;4992009;28;20460;-81
2022/01/02 12:45:42;;;;;;;1.77;0.73;;;20.40;25.00;;;;;;4979090;28;21056;-81
2022/01/02 12:48:11;;;;;;;1.90;0.90;;;20.10;25.20;;;;;;4987779;28;20440;-81
2022/01/02 12:50:43;;;;;;;1.70;0.70;;;20.00;24.90;;;;;;4985744;28;20503;-80
2022/01/02 12:53:11;;;;;;;1.80;0.83;;;19.90;23.10;;;;;;4994058;28;20436;-80
2022/01/02 12:55:40;;;;;;;1.67;0.60;;;19.70;23.50;;;;;;4974660;28;20798;-79
2022/01/02 12:58:09;;;;;;;1.40;0.60;;;19.60;24.00;;;;;;4978007;28;20938;-79
2022/01/02 13:00:55;;;;;;;1.63;0.60;;;19.70;23.90;;;;;;4976341;28;20445;-80
2022/01/02 13:03:22;;;;;;;1.90;0.60;;;19.90;23.60;;;;;;4978417;28;20449;-81
2022/01/02 13:05:58;;;;;;;1.73;0.73;;;20.30;23.90;;;;;;4976012;28;20480;-81
2022/01/02 13:08:36;;;;;;;2.03;0.60;;;20.70;23.30;;;;;;4992336;28;20459;-81
2022/01/02 13:11:11;;;;;;;7.43;0.80;;;21.10;23.20;;;;;;4992849;28;20444;-80